createdAt,value
2018-03-04T00:00:08.191Z,1004.36
2018-03-04T00:01:08.208Z,1004.37
2018-03-04T00:02:08.231Z,1004.38
2018-03-04T00:03:08.244Z,1004.38
2018-03-04T00:04:08.253Z,1004.38
2018-03-04T00:05:08.275Z,1004.43
2018-03-04T00:06:08.291Z,1004.39
2018-03-04T00:07:08.313Z,1004.40
2018-03-04T00:08:08.322Z,1004.38
2018-03-04T00:09:08.332Z,1004.39
2018-03-04T00:10:08.396Z,1004.35
2018-03-04T00:11:08.367Z,1004.37
2018-03-04T00:12:08.382Z,1004.40
2018-03-04T00:13:08.402Z,1004.34
2018-03-04T00:14:08.408Z,1004.36
2018-03-04T00:15:08.424Z,1004.39
2018-03-04T00:16:08.439Z,1004.38
2018-03-04T00:17:08.456Z,1004.36
2018-03-04T00:18:08.498Z,1004.40
2018-03-04T00:19:08.492Z,1004.39
2018-03-04T00:20:08.515Z,1004.40
2018-03-04T00:21:08.517Z,1004.45
2018-03-04T00:22:08.530Z,1004.46
2018-03-04T00:23:08.552Z,1004.44
2018-03-04T00:24:08.585Z,1004.47
2018-03-04T00:25:08.599Z,1004.45
2018-03-04T00:26:08.598Z,1004.48
2018-03-04T00:27:08.611Z,1004.51
2018-03-04T00:28:08.624Z,1004.49
2018-03-04T00:29:08.663Z,1004.42
2018-03-04T00:30:08.658Z,1004.43
2018-03-04T00:31:08.673Z,1004.44
2018-03-04T00:32:08.697Z,1004.44
2018-03-04T00:33:08.706Z,1004.49
2018-03-04T00:34:08.721Z,1004.50
2018-03-04T00:35:08.749Z,1004.54
2018-03-04T00:36:08.755Z,1004.55
2018-03-04T00:37:08.776Z,1004.57
2018-03-04T00:38:08.792Z,1004.53
2018-03-04T00:39:08.805Z,1004.52
2018-03-04T00:40:08.811Z,1004.53
2018-03-04T00:41:08.836Z,1004.55
2018-03-04T00:42:08.856Z,1004.55
2018-03-04T00:43:08.892Z,1004.57
2018-03-04T00:44:08.887Z,1004.61
2018-03-04T00:45:08.939Z,1004.56
2018-03-04T00:46:08.907Z,1004.60
2018-03-04T00:47:08.933Z,1004.56
2018-03-04T00:48:08.944Z,1004.57
2018-03-04T00:49:08.952Z,1004.57
2018-03-04T00:50:08.974Z,1004.54
2018-03-04T00:51:08.985Z,1004.57
2018-03-04T00:52:09.000Z,1004.50
2018-03-04T00:53:09.019Z,1004.51
2018-03-04T00:54:09.034Z,1004.48
2018-03-04T00:55:09.048Z,1004.51
2018-03-04T00:56:09.063Z,1004.47
2018-03-04T00:57:09.077Z,1004.49
2018-03-04T00:58:09.867Z,1004.46
2018-03-04T00:59:09.111Z,1004.47
2018-03-04T01:00:09.133Z,1004.45
2018-03-04T01:01:09.140Z,1004.47
2018-03-04T01:02:09.171Z,1004.51
2018-03-04T01:03:09.182Z,1004.46
2018-03-04T01:04:09.194Z,1004.48
2018-03-04T01:05:09.203Z,1004.45
2018-03-04T01:06:09.224Z,1004.41
2018-03-04T01:07:09.231Z,1004.41
2018-03-04T01:08:09.250Z,1004.39
2018-03-04T01:09:09.275Z,1004.42
2018-03-04T01:10:09.279Z,1004.39
2018-03-04T01:11:09.314Z,1004.41
2018-03-04T01:12:09.318Z,1004.28
2018-03-04T01:13:09.386Z,1004.27
2018-03-04T01:14:09.347Z,1004.28
2018-03-04T01:15:09.357Z,1004.26
2018-03-04T01:16:09.376Z,1004.17
2018-03-04T01:17:09.388Z,1004.17
2018-03-04T01:18:09.401Z,1004.12
2018-03-04T01:19:09.419Z,1004.15
2018-03-04T01:20:09.440Z,1004.16
2018-03-04T01:21:09.456Z,1004.14
2018-03-04T01:22:09.466Z,1004.14
2018-03-04T01:23:09.489Z,1004.13
2018-03-04T01:24:09.553Z,1004.14
2018-03-04T01:25:09.520Z,1004.12
2018-03-04T01:26:10.364Z,1004.07
2018-03-04T01:27:09.545Z,1004.10
2018-03-04T01:28:09.564Z,1004.07
2018-03-04T01:29:09.586Z,1004.06
2018-03-04T01:30:09.599Z,1004.06
2018-03-04T01:31:09.608Z,1004.06
2018-03-04T01:32:09.621Z,1004.12
2018-03-04T01:33:09.640Z,1004.06
2018-03-04T01:34:09.657Z,1004.11
2018-03-04T01:35:09.672Z,1004.11
2018-03-04T01:36:09.683Z,1004.06
2018-03-04T01:37:09.698Z,1004.07
2018-03-04T01:38:09.738Z,1004.03
2018-03-04T01:39:09.734Z,1003.99
2018-03-04T01:40:09.746Z,1004.01
2018-03-04T01:41:09.769Z,1004.06
2018-03-04T01:42:09.778Z,1004.02
2018-03-04T01:43:09.796Z,1004.06
2018-03-04T01:44:09.804Z,1004.06
2018-03-04T01:45:09.824Z,1004.08
2018-03-04T01:46:09.843Z,1004.13
2018-03-04T01:47:09.855Z,1004.13
2018-03-04T01:48:09.881Z,1004.08
2018-03-04T01:49:09.885Z,1004.15
2018-03-04T01:50:09.910Z,1004.12
2018-03-04T01:51:09.922Z,1004.13
2018-03-04T01:52:09.953Z,1004.10
2018-03-04T01:53:09.947Z,1004.13
2018-03-04T01:54:09.962Z,1004.13
2018-03-04T01:55:09.985Z,1004.12
2018-03-04T01:56:09.992Z,1004.10
2018-03-04T01:57:10.008Z,1004.11
2018-03-04T01:58:10.031Z,1004.09
2018-03-04T01:59:10.037Z,1004.12
2018-03-04T02:00:10.054Z,1004.05
2018-03-04T02:01:10.068Z,1004.06
2018-03-04T02:02:10.082Z,1004.06
2018-03-04T02:03:10.098Z,1004.03
2018-03-04T02:04:10.127Z,1004.04
2018-03-04T02:05:10.129Z,1004.02
2018-03-04T02:06:10.153Z,1004.07
2018-03-04T02:07:10.160Z,1004.01
2018-03-04T02:08:10.191Z,1003.97
2018-03-04T02:09:10.190Z,1003.94
2018-03-04T02:10:10.211Z,1003.97
2018-03-04T02:11:10.223Z,1003.97
2018-03-04T02:12:10.233Z,1003.99
2018-03-04T02:13:10.255Z,1003.96
2018-03-04T02:14:10.281Z,1003.98
2018-03-04T02:15:10.279Z,1004.03
2018-03-04T02:16:10.305Z,1004.05
2018-03-04T02:17:10.316Z,1004.02
2018-03-04T02:18:10.327Z,1004.09
2018-03-04T02:19:10.348Z,1004.09
2018-03-04T02:20:10.357Z,1004.11
2018-03-04T02:21:10.384Z,1004.11
2018-03-04T02:22:10.387Z,1004.09
2018-03-04T02:23:10.402Z,1004.10
2018-03-04T02:24:10.420Z,1004.08
2018-03-04T02:25:10.434Z,1004.08
2018-03-04T02:26:10.446Z,1004.05
2018-03-04T02:27:10.474Z,1004.06
2018-03-04T02:28:10.480Z,1004.12
2018-03-04T02:29:10.501Z,1004.10
2018-03-04T02:30:10.510Z,1004.08
2018-03-04T02:31:10.524Z,1004.09
2018-03-04T02:32:10.555Z,1004.09
2018-03-04T02:33:10.574Z,1004.12
2018-03-04T02:34:10.574Z,1004.09
2018-03-04T02:35:10.585Z,1004.10
2018-03-04T02:36:10.633Z,1004.07
2018-03-04T02:37:10.625Z,1004.07
2018-03-04T02:38:10.637Z,1004.11
2018-03-04T02:39:10.651Z,1004.11
2018-03-04T02:40:10.663Z,1004.14
2018-03-04T02:41:10.678Z,1004.11
2018-03-04T02:42:10.697Z,1004.11
2018-03-04T02:43:10.709Z,1004.11
2018-03-04T02:44:10.722Z,1004.17
2018-03-04T02:45:10.735Z,1004.16
2018-03-04T02:46:10.764Z,1004.13
2018-03-04T02:47:10.776Z,1004.13
2018-03-04T02:48:10.786Z,1004.12
2018-03-04T02:49:10.802Z,1004.12
2018-03-04T02:50:10.812Z,1004.11
2018-03-04T02:51:10.828Z,1004.07
2018-03-04T02:52:10.845Z,1004.05
2018-03-04T02:53:10.858Z,1004.07
2018-03-04T02:54:10.881Z,1004.09
2018-03-04T02:55:10.897Z,1004.03
2018-03-04T02:56:10.906Z,1004.04
2018-03-04T02:57:10.918Z,1003.99
2018-03-04T02:58:10.952Z,1003.97
2018-03-04T02:59:10.953Z,1003.95
2018-03-04T03:00:10.988Z,1004.05
2018-03-04T03:01:10.981Z,1004.08
2018-03-04T03:02:10.998Z,1004.07
2018-03-04T03:03:11.012Z,1004.06
2018-03-04T03:04:11.027Z,1004.02
2018-03-04T03:05:11.049Z,1004.03
2018-03-04T03:06:11.056Z,1004.04
2018-03-04T03:07:11.080Z,1004.01
2018-03-04T03:08:11.088Z,1004.08
2018-03-04T03:09:11.102Z,1004.00
2018-03-04T03:10:11.119Z,1004.03
2018-03-04T03:11:11.150Z,1004.04
2018-03-04T03:12:11.148Z,1004.04
2018-03-04T03:13:11.167Z,1004.02
2018-03-04T03:14:11.173Z,1004.06
2018-03-04T03:15:11.195Z,1003.99
2018-03-04T03:16:11.204Z,1004.02
2018-03-04T03:17:11.218Z,1003.99
2018-03-04T03:18:11.232Z,1004.00
2018-03-04T03:19:11.253Z,1003.97
2018-03-04T03:20:11.275Z,1003.99
2018-03-04T03:21:11.282Z,1003.98
2018-03-04T03:22:11.301Z,1003.94
2018-03-04T03:23:11.313Z,1003.95
2018-03-04T03:24:11.324Z,1003.91
2018-03-04T03:25:11.358Z,1003.94
2018-03-04T03:26:11.353Z,1003.92
2018-03-04T03:27:11.374Z,1003.89
2018-03-04T03:28:11.400Z,1003.94
2018-03-04T03:29:11.404Z,1003.94
2018-03-04T03:30:11.424Z,1003.96
2018-03-04T03:31:11.432Z,1003.93
2018-03-04T03:32:11.446Z,1003.98
2018-03-04T03:33:11.481Z,1003.95
2018-03-04T03:34:11.484Z,1004.01
2018-03-04T03:35:11.514Z,1004.01
2018-03-04T03:36:11.503Z,1004.03
2018-03-04T03:37:11.550Z,1004.07
2018-03-04T03:38:11.538Z,1004.05
2018-03-04T03:39:11.553Z,1004.11
2018-03-04T03:40:11.562Z,1004.08
2018-03-04T03:41:11.589Z,1004.09
2018-03-04T03:42:11.598Z,1004.07
2018-03-04T03:43:11.612Z,1004.05
2018-03-04T03:44:11.625Z,1004.01
2018-03-04T03:45:11.640Z,1003.97
2018-03-04T03:46:11.655Z,1003.98
2018-03-04T03:47:11.675Z,1003.94
2018-03-04T03:48:12.354Z,1003.98
2018-03-04T03:49:11.706Z,1003.93
2018-03-04T03:50:11.811Z,1003.88
2018-03-04T03:51:11.734Z,1003.93
2018-03-04T03:52:11.759Z,1003.90
2018-03-04T03:53:11.760Z,1003.86
2018-03-04T03:54:11.781Z,1003.88
2018-03-04T03:55:11.791Z,1003.91
2018-03-04T03:56:11.803Z,1003.93
2018-03-04T03:57:11.818Z,1003.90
2018-03-04T03:58:11.834Z,1003.85
2018-03-04T03:59:11.858Z,1003.87
2018-03-04T04:00:11.865Z,1003.91
2018-03-04T04:01:11.883Z,1003.88
2018-03-04T04:02:11.893Z,1003.87
2018-03-04T04:03:11.910Z,1003.88
2018-03-04T04:04:11.928Z,1003.90
2018-03-04T04:05:11.941Z,1003.90
2018-03-04T04:06:11.958Z,1003.89
2018-03-04T04:07:11.980Z,1003.87
2018-03-04T04:08:11.992Z,1003.79
2018-03-04T04:09:12.001Z,1003.76
2018-03-04T04:10:12.016Z,1003.76
2018-03-04T04:11:12.037Z,1003.73
2018-03-04T04:12:12.045Z,1003.69
2018-03-04T04:13:12.072Z,1003.73
2018-03-04T04:14:12.075Z,1003.69
2018-03-04T04:15:12.089Z,1003.68
2018-03-04T04:16:12.104Z,1003.66
2018-03-04T04:17:12.124Z,1003.65
2018-03-04T04:18:12.134Z,1003.60
2018-03-04T04:19:12.147Z,1003.64
2018-03-04T04:20:12.171Z,1003.56
2018-03-04T04:21:12.180Z,1003.62
2018-03-04T04:22:12.195Z,1003.67
2018-03-04T04:23:12.210Z,1003.60
2018-03-04T04:24:12.221Z,1003.63
2018-03-04T04:25:12.237Z,1003.64
2018-03-04T04:26:12.256Z,1003.67
2018-03-04T04:27:12.269Z,1003.62
2018-03-04T04:28:12.280Z,1003.59
2018-03-04T04:29:12.299Z,1003.67
2018-03-04T04:30:12.311Z,1003.64
2018-03-04T04:31:12.329Z,1003.64
2018-03-04T04:32:12.345Z,1003.68
2018-03-04T04:33:12.368Z,1003.63
2018-03-04T04:34:12.392Z,1003.65
2018-03-04T04:35:12.384Z,1003.67
2018-03-04T04:36:12.403Z,1003.68
2018-03-04T04:37:12.416Z,1003.70
2018-03-04T04:38:12.432Z,1003.68
2018-03-04T04:39:12.450Z,1003.72
2018-03-04T04:40:12.474Z,1003.73
2018-03-04T04:41:12.475Z,1003.71
2018-03-04T04:42:12.495Z,1003.73
2018-03-04T04:43:12.518Z,1003.71
2018-03-04T04:44:12.527Z,1003.67
2018-03-04T04:45:12.535Z,1003.67
2018-03-04T04:46:12.568Z,1003.69
2018-03-04T04:47:12.573Z,1003.68
2018-03-04T04:48:12.578Z,1003.68
2018-03-04T04:49:12.595Z,1003.69
2018-03-04T04:50:12.609Z,1003.69
2018-03-04T04:51:12.627Z,1003.66
2018-03-04T04:52:12.647Z,1003.69
2018-03-04T04:53:12.659Z,1003.62
2018-03-04T04:54:12.667Z,1003.64
2018-03-04T04:55:12.684Z,1003.65
2018-03-04T04:56:12.695Z,1003.56
2018-03-04T04:57:12.718Z,1003.54
2018-03-04T04:58:12.729Z,1003.56
2018-03-04T04:59:12.740Z,1003.57
2018-03-04T05:00:12.754Z,1003.53
2018-03-04T05:01:12.784Z,1003.56
2018-03-04T05:02:12.782Z,1003.52
2018-03-04T05:03:12.799Z,1003.59
2018-03-04T05:04:12.822Z,1003.57
2018-03-04T05:05:12.826Z,1003.56
2018-03-04T05:06:12.841Z,1003.54
2018-03-04T05:07:12.856Z,1003.56
2018-03-04T05:08:12.880Z,1003.56
2018-03-04T05:09:12.891Z,1003.54
2018-03-04T05:10:12.898Z,1003.52
2018-03-04T05:11:12.920Z,1003.48
2018-03-04T05:12:12.933Z,1003.51
2018-03-04T05:13:12.950Z,1003.49
2018-03-04T05:14:12.967Z,1003.55
2018-03-04T05:15:12.982Z,1003.55
2018-03-04T05:16:13.056Z,1003.54
2018-03-04T05:17:13.001Z,1003.56
2018-03-04T05:18:13.041Z,1003.56
2018-03-04T05:19:13.034Z,1003.54
2018-03-04T05:20:13.052Z,1003.53
2018-03-04T05:21:13.064Z,1003.52
2018-03-04T05:22:13.077Z,1003.51
2018-03-04T05:23:13.095Z,1003.51
2018-03-04T05:24:13.106Z,1003.54
2018-03-04T05:25:13.127Z,1003.54
2018-03-04T05:26:13.135Z,1003.54
2018-03-04T05:27:13.155Z,1003.51
2018-03-04T05:28:13.169Z,1003.53
2018-03-04T05:29:13.187Z,1003.55
2018-03-04T05:30:13.199Z,1003.51
2018-03-04T05:31:13.217Z,1003.53
2018-03-04T05:32:13.229Z,1003.50
2018-03-04T05:33:13.254Z,1003.52
2018-03-04T05:34:13.274Z,1003.49
2018-03-04T05:35:13.272Z,1003.51
2018-03-04T05:36:13.284Z,1003.54
2018-03-04T05:37:13.298Z,1003.57
2018-03-04T05:38:13.317Z,1003.62
2018-03-04T05:39:13.330Z,1003.60
2018-03-04T05:40:13.345Z,1003.62
2018-03-04T05:41:13.363Z,1003.62
2018-03-04T05:42:13.372Z,1003.65
2018-03-04T05:43:13.401Z,1003.66
2018-03-04T05:44:13.410Z,1003.62
2018-03-04T05:45:13.427Z,1003.69
2018-03-04T05:46:14.333Z,1003.68
2018-03-04T05:47:13.451Z,1003.71
2018-03-04T05:48:13.469Z,1003.66
2018-03-04T05:49:13.476Z,1003.67
2018-03-04T05:50:13.492Z,1003.66
2018-03-04T05:51:13.506Z,1003.65
2018-03-04T05:52:13.525Z,1003.62
2018-03-04T05:53:13.537Z,1003.61
2018-03-04T05:54:13.548Z,1003.59
2018-03-04T05:55:13.565Z,1003.56
2018-03-04T05:56:13.573Z,1003.55
2018-03-04T05:57:13.590Z,1003.56
2018-03-04T05:58:13.610Z,1003.58
2018-03-04T05:59:13.638Z,1003.58
2018-03-04T06:00:13.633Z,1003.58
2018-03-04T06:01:13.657Z,1003.62
2018-03-04T06:02:13.669Z,1003.64
2018-03-04T06:03:13.677Z,1003.59
2018-03-04T06:04:13.694Z,1003.57
2018-03-04T06:05:13.711Z,1003.60
2018-03-04T06:06:13.724Z,1003.60
2018-03-04T06:07:13.743Z,1003.62
2018-03-04T06:08:13.769Z,1003.63
2018-03-04T06:09:13.768Z,1003.64
2018-03-04T06:10:13.783Z,1003.63
2018-03-04T06:11:13.795Z,1003.63
2018-03-04T06:12:13.813Z,1003.68
2018-03-04T06:13:13.831Z,1003.72
2018-03-04T06:14:13.855Z,1003.71
2018-03-04T06:15:13.860Z,1003.69
2018-03-04T06:16:13.867Z,1003.73
2018-03-04T06:17:13.884Z,1003.73
2018-03-04T06:18:13.901Z,1003.74
2018-03-04T06:19:13.921Z,1003.72
2018-03-04T06:20:13.940Z,1003.70
2018-03-04T06:21:13.946Z,1003.70
2018-03-04T06:22:13.956Z,1003.63
2018-03-04T06:23:13.974Z,1003.69
2018-03-04T06:24:13.991Z,1003.73
2018-03-04T06:25:14.002Z,1003.73
2018-03-04T06:26:14.015Z,1003.71
2018-03-04T06:27:14.034Z,1003.75
2018-03-04T06:28:14.043Z,1003.77
2018-03-04T06:29:14.063Z,1003.75
2018-03-04T06:30:14.076Z,1003.76
2018-03-04T06:31:14.091Z,1003.78
2018-03-04T06:32:14.106Z,1003.74
2018-03-04T06:33:14.133Z,1003.74
2018-03-04T06:34:14.135Z,1003.78
2018-03-04T06:35:14.154Z,1003.77
2018-03-04T06:36:14.177Z,1003.78
2018-03-04T06:37:14.184Z,1003.79
2018-03-04T06:38:14.199Z,1003.78
2018-03-04T06:39:14.206Z,1003.79
2018-03-04T06:40:14.221Z,1003.82
2018-03-04T06:41:14.239Z,1003.79
2018-03-04T06:42:14.257Z,1003.78
2018-03-04T06:43:14.333Z,1003.77
2018-03-04T06:44:14.281Z,1003.79
2018-03-04T06:45:14.297Z,1003.77
2018-03-04T06:46:14.313Z,1003.78
2018-03-04T06:47:14.328Z,1003.81
2018-03-04T06:48:14.344Z,1003.80
2018-03-04T06:49:14.358Z,1003.76
2018-03-04T06:50:14.374Z,1003.75
2018-03-04T06:51:14.394Z,1003.79
2018-03-04T06:52:14.400Z,1003.77
2018-03-04T06:53:14.412Z,1003.75
2018-03-04T06:54:14.435Z,1003.73
2018-03-04T06:55:14.448Z,1003.73
2018-03-04T06:56:14.459Z,1003.69
2018-03-04T06:57:14.473Z,1003.70
2018-03-04T06:58:14.497Z,1003.73
2018-03-04T06:59:14.518Z,1003.71
2018-03-04T07:00:14.528Z,1003.73
2018-03-04T07:01:14.536Z,1003.72
2018-03-04T07:02:14.546Z,1003.64
2018-03-04T07:03:14.565Z,1003.65
2018-03-04T07:04:14.578Z,1003.61
2018-03-04T07:05:14.607Z,1003.54
2018-03-04T07:06:14.605Z,1003.52
2018-03-04T07:07:14.623Z,1003.49
2018-03-04T07:08:14.639Z,1003.56
2018-03-04T07:09:14.663Z,1003.53
2018-03-04T07:10:14.670Z,1003.54
2018-03-04T07:11:14.679Z,1003.53
2018-03-04T07:12:14.710Z,1003.51
2018-03-04T07:13:14.723Z,1003.46
2018-03-04T07:14:14.724Z,1003.53
2018-03-04T07:15:14.743Z,1003.49
2018-03-04T07:16:14.767Z,1003.51
2018-03-04T07:17:14.768Z,1003.48
2018-03-04T07:18:14.788Z,1003.46
2018-03-04T07:19:14.799Z,1003.37
2018-03-04T07:20:14.813Z,1003.38
2018-03-04T07:21:14.837Z,1003.40
2018-03-04T07:22:14.852Z,1003.43
2018-03-04T07:23:14.866Z,1003.38
2018-03-04T07:24:14.885Z,1003.38
2018-03-04T07:25:14.889Z,1003.43
2018-03-04T07:26:14.899Z,1003.43
2018-03-04T07:27:14.924Z,1003.43
2018-03-04T07:28:14.937Z,1003.43
2018-03-04T07:29:14.957Z,1003.40
2018-03-04T07:30:14.963Z,1003.42
2018-03-04T07:31:14.989Z,1003.45
2018-03-04T07:32:15.013Z,1003.44
2018-03-04T07:33:15.011Z,1003.40
2018-03-04T07:34:15.075Z,1003.40
2018-03-04T07:35:15.060Z,1003.40
2018-03-04T07:36:15.067Z,1003.41
2018-03-04T07:37:15.070Z,1003.41
2018-03-04T07:38:15.087Z,1003.36
2018-03-04T07:39:15.097Z,1003.37
2018-03-04T07:40:15.155Z,1003.29
2018-03-04T07:41:15.134Z,1003.35
2018-03-04T07:42:15.164Z,1003.29
2018-03-04T07:43:15.163Z,1003.30
2018-03-04T07:44:15.181Z,1003.27
2018-03-04T07:45:15.192Z,1003.28
2018-03-04T07:46:15.205Z,1003.27
2018-03-04T07:47:15.229Z,1003.25
2018-03-04T07:48:15.241Z,1003.29
2018-03-04T07:49:15.254Z,1003.27
2018-03-04T07:50:15.266Z,1003.25
2018-03-04T07:51:15.279Z,1003.23
2018-03-04T07:52:15.306Z,1003.20
2018-03-04T07:53:15.314Z,1003.19
2018-03-04T07:54:15.328Z,1003.14
2018-03-04T07:55:15.357Z,1003.16
2018-03-04T07:56:15.359Z,1003.13
2018-03-04T07:57:15.391Z,1003.17
2018-03-04T07:58:15.390Z,1003.18
2018-03-04T07:59:15.416Z,1003.17
2018-03-04T08:00:15.437Z,1003.22
2018-03-04T08:01:15.439Z,1003.19
2018-03-04T08:02:15.467Z,1003.22
2018-03-04T08:03:15.467Z,1003.20
2018-03-04T08:04:15.481Z,1003.27
2018-03-04T08:05:15.504Z,1003.26
2018-03-04T08:06:15.528Z,1003.24
2018-03-04T08:07:15.535Z,1003.22
2018-03-04T08:08:15.567Z,1003.19
2018-03-04T08:09:15.563Z,1003.18
2018-03-04T08:10:15.590Z,1003.15
2018-03-04T08:11:15.594Z,1003.18
2018-03-04T08:12:15.618Z,1003.17
2018-03-04T08:13:15.632Z,1003.18
2018-03-04T08:14:15.647Z,1003.15
2018-03-04T08:15:15.664Z,1003.16
2018-03-04T08:16:15.673Z,1003.17
2018-03-04T08:17:15.695Z,1003.14
2018-03-04T08:18:15.704Z,1003.13
2018-03-04T08:19:15.726Z,1003.17
2018-03-04T08:20:15.739Z,1003.11
2018-03-04T08:21:15.770Z,1003.16
2018-03-04T08:22:15.763Z,1003.17
2018-03-04T08:23:15.786Z,1003.14
2018-03-04T08:24:15.803Z,1003.09
2018-03-04T08:25:15.851Z,1003.16
2018-03-04T08:26:15.832Z,1003.11
2018-03-04T08:27:15.846Z,1003.08
2018-03-04T08:28:15.866Z,1003.14
2018-03-04T08:29:15.879Z,1003.13
2018-03-04T08:30:15.894Z,1003.12
2018-03-04T08:31:15.917Z,1003.12
2018-03-04T08:32:15.933Z,1003.11
2018-03-04T08:33:15.951Z,1003.09
2018-03-04T08:34:15.956Z,1003.09
2018-03-04T08:35:15.975Z,1003.07
2018-03-04T08:36:15.996Z,1003.05
2018-03-04T08:37:16.007Z,1003.06
2018-03-04T08:38:16.026Z,1003.10
2018-03-04T08:39:16.041Z,1003.10
2018-03-04T08:40:16.066Z,1003.10
2018-03-04T08:41:16.076Z,1003.02
2018-03-04T08:42:16.092Z,1003.04
2018-03-04T08:43:16.114Z,1003.05
2018-03-04T08:44:16.124Z,1003.04
2018-03-04T08:45:16.144Z,1003.04
2018-03-04T08:46:16.171Z,1003.04
2018-03-04T08:47:16.173Z,1003.04
2018-03-04T08:48:16.191Z,1003.05
2018-03-04T08:49:16.221Z,1003.02
2018-03-04T08:50:16.220Z,1002.99
2018-03-04T08:51:16.245Z,1002.97
2018-03-04T08:52:16.260Z,1002.98
2018-03-04T08:53:16.281Z,1002.97
2018-03-04T08:54:16.289Z,1003.00
2018-03-04T08:55:16.306Z,1002.95
2018-03-04T08:56:16.323Z,1002.94
2018-03-04T08:57:16.341Z,1002.97
2018-03-04T08:58:16.418Z,1002.94
2018-03-04T08:59:16.389Z,1002.97
2018-03-04T09:00:16.380Z,1002.91
2018-03-04T09:01:16.412Z,1002.92
2018-03-04T09:02:16.510Z,1002.91
2018-03-04T09:03:16.435Z,1002.93
2018-03-04T09:04:16.456Z,1002.92
2018-03-04T09:05:16.476Z,1002.91
2018-03-04T09:06:16.493Z,1002.91
2018-03-04T09:07:16.504Z,1002.92
2018-03-04T09:08:16.527Z,1002.94
2018-03-04T09:09:16.543Z,1002.92
2018-03-04T09:10:16.551Z,1002.87
2018-03-04T09:11:16.569Z,1002.87
2018-03-04T09:12:16.602Z,1002.90
2018-03-04T09:13:16.603Z,1002.87
2018-03-04T09:14:16.619Z,1002.87
2018-03-04T09:15:16.642Z,1002.89
2018-03-04T09:16:16.651Z,1002.84
2018-03-04T09:17:16.674Z,1002.82
2018-03-04T09:18:16.691Z,1002.84
2018-03-04T09:19:16.707Z,1002.80
2018-03-04T09:20:16.729Z,1002.79
2018-03-04T09:21:16.790Z,1002.88
2018-03-04T09:22:16.761Z,1002.83
2018-03-04T09:23:16.807Z,1002.78
2018-03-04T09:24:16.793Z,1002.80
2018-03-04T09:25:16.821Z,1002.85
2018-03-04T09:26:16.841Z,1002.81
2018-03-04T09:27:16.857Z,1002.82
2018-03-04T09:28:16.863Z,1002.82
2018-03-04T09:29:16.886Z,1002.84
2018-03-04T09:30:16.901Z,1002.87
2018-03-04T09:31:16.925Z,1002.83
2018-03-04T09:32:16.939Z,1002.78
2018-03-04T09:33:16.954Z,1002.74
2018-03-04T09:34:16.975Z,1002.74
2018-03-04T09:35:16.994Z,1002.78
2018-03-04T09:36:17.008Z,1002.72
2018-03-04T09:37:17.023Z,1002.76
2018-03-04T09:38:17.042Z,1002.81
2018-03-04T09:39:17.070Z,1002.77
2018-03-04T09:40:17.077Z,1002.75
2018-03-04T09:41:17.102Z,1002.72
2018-03-04T09:42:17.140Z,1002.76
2018-03-04T09:43:17.154Z,1002.77
2018-03-04T09:44:17.169Z,1002.74
2018-03-04T09:45:17.184Z,1002.74
2018-03-04T09:46:17.193Z,1002.69
2018-03-04T09:47:17.227Z,1002.77
2018-03-04T09:48:17.230Z,1002.76
2018-03-04T09:49:17.242Z,1002.81
2018-03-04T09:50:17.258Z,1002.84
2018-03-04T09:51:17.289Z,1002.84
2018-03-04T09:52:17.297Z,1002.88
2018-03-04T09:53:17.322Z,1002.87
2018-03-04T09:54:17.337Z,1002.82
2018-03-04T09:55:17.356Z,1002.84
2018-03-04T09:56:17.373Z,1002.91
2018-03-04T09:57:17.395Z,1002.89
2018-03-04T09:58:17.420Z,1002.87
2018-03-04T09:59:17.440Z,1002.88
2018-03-04T10:00:17.459Z,1002.87
2018-03-04T10:01:17.483Z,1002.82
2018-03-04T10:02:17.504Z,1002.93
2018-03-04T10:03:17.521Z,1002.90
2018-03-04T10:04:17.547Z,1002.90
2018-03-04T10:05:17.561Z,1002.91
2018-03-04T10:06:17.577Z,1002.85
2018-03-04T10:07:17.600Z,1002.89
2018-03-04T10:08:17.632Z,1002.90
2018-03-04T10:09:18.308Z,1002.93
2018-03-04T10:10:17.676Z,1002.89
2018-03-04T10:11:17.699Z,1002.90
2018-03-04T10:12:17.723Z,1002.94
2018-03-04T10:13:17.734Z,1002.95
2018-03-04T10:14:17.763Z,1002.96
2018-03-04T10:15:17.793Z,1002.95
2018-03-04T10:16:17.803Z,1002.91
2018-03-04T10:17:17.828Z,1002.91
2018-03-04T10:18:17.863Z,1002.87
2018-03-04T10:19:17.877Z,1002.87
2018-03-04T10:20:17.903Z,1002.83
2018-03-04T10:21:17.937Z,1002.85
2018-03-04T10:22:17.951Z,1002.84
2018-03-04T10:23:17.976Z,1002.82
2018-03-04T10:24:18.012Z,1002.91
2018-03-04T10:25:18.031Z,1002.93
2018-03-04T10:26:18.064Z,1002.90
2018-03-04T10:27:18.103Z,1002.91
2018-03-04T10:28:18.103Z,1002.90
2018-03-04T10:29:18.137Z,1002.89
2018-03-04T10:30:18.202Z,1002.91
2018-03-04T10:31:18.185Z,1002.86
2018-03-04T10:32:18.219Z,1002.87
2018-03-04T10:33:18.232Z,1002.89
2018-03-04T10:34:18.275Z,1002.83
2018-03-04T10:35:18.418Z,1002.83
2018-03-04T10:36:18.471Z,1002.79
2018-03-04T10:37:18.367Z,1002.81
2018-03-04T10:38:18.374Z,1002.81
2018-03-04T10:39:24.837Z,1002.81
2018-03-04T10:40:18.459Z,1002.80
2018-03-04T10:41:18.460Z,1002.85
2018-03-04T10:42:18.514Z,1002.80
2018-03-04T10:43:18.522Z,1002.81
2018-03-04T10:44:18.553Z,1002.79
2018-03-04T10:45:18.623Z,1002.73
2018-03-04T10:46:18.603Z,1002.76
2018-03-04T10:47:18.639Z,1002.70
2018-03-04T10:48:18.673Z,1002.70
2018-03-04T10:49:18.724Z,1002.70
2018-03-04T10:50:18.729Z,1002.70
2018-03-04T10:51:18.763Z,1002.69
2018-03-04T10:52:18.786Z,1002.67
2018-03-04T10:53:18.824Z,1002.71
2018-03-04T10:54:18.846Z,1002.63
2018-03-04T10:55:18.881Z,1002.63
2018-03-04T10:56:18.915Z,1002.66
2018-03-04T10:57:18.947Z,1002.62
2018-03-04T10:58:18.985Z,1002.54
2018-03-04T10:59:18.999Z,1002.54
2018-03-04T11:00:19.044Z,1002.52
2018-03-04T11:01:19.897Z,1002.50
2018-03-04T11:02:19.103Z,1002.50
2018-03-04T11:03:19.141Z,1002.44
2018-03-04T11:04:19.169Z,1002.42
2018-03-04T11:05:19.189Z,1002.44
2018-03-04T11:06:19.220Z,1002.45
2018-03-04T11:07:19.273Z,1002.48
2018-03-04T11:08:19.296Z,1002.48
2018-03-04T11:09:19.326Z,1002.48
2018-03-04T11:10:19.349Z,1002.51
2018-03-04T11:11:19.375Z,1002.51
2018-03-04T11:12:19.417Z,1002.50
2018-03-04T11:13:19.454Z,1002.50
2018-03-04T11:14:19.488Z,1002.50
2018-03-04T11:15:19.575Z,1002.48
2018-03-04T11:16:19.554Z,1002.46
2018-03-04T11:17:19.572Z,1002.47
2018-03-04T11:18:19.614Z,1002.45
2018-03-04T11:19:19.632Z,1002.42
2018-03-04T11:20:19.662Z,1002.39
2018-03-04T11:21:19.707Z,1002.39
2018-03-04T11:22:19.747Z,1002.36
2018-03-04T11:23:19.767Z,1002.38
2018-03-04T11:24:19.819Z,1002.37
2018-03-04T11:25:19.826Z,1002.40
2018-03-04T11:26:19.857Z,1002.37
2018-03-04T11:27:19.890Z,1002.31
2018-03-04T11:28:19.928Z,1002.34
2018-03-04T11:29:19.961Z,1002.34
2018-03-04T11:30:19.992Z,1002.37
2018-03-04T11:31:20.024Z,1002.34
2018-03-04T11:32:20.066Z,1002.35
2018-03-04T11:33:20.088Z,1002.26
2018-03-04T11:34:20.119Z,1002.23
2018-03-04T11:35:20.151Z,1002.19
2018-03-04T11:36:20.185Z,1002.13
2018-03-04T11:37:20.228Z,1002.16
2018-03-04T11:38:20.247Z,1002.13
2018-03-04T11:39:20.290Z,1002.18
2018-03-04T11:40:20.321Z,1002.16
2018-03-04T11:41:20.355Z,1002.15
2018-03-04T11:42:20.373Z,1002.14
2018-03-04T11:43:20.417Z,1002.13
2018-03-04T11:44:20.437Z,1002.11
2018-03-04T11:45:20.481Z,1002.08
2018-03-04T11:46:20.503Z,1002.07
2018-03-04T11:47:20.534Z,1002.11
2018-03-04T11:48:20.556Z,1002.06
2018-03-04T11:49:20.594Z,1002.06
2018-03-04T11:50:20.626Z,1002.03
2018-03-04T11:51:20.647Z,1002.08
2018-03-04T11:52:20.681Z,1002.07
2018-03-04T11:53:20.711Z,1002.02
2018-03-04T11:54:20.733Z,1002.02
2018-03-04T11:55:20.773Z,1002.02
2018-03-04T11:56:20.816Z,1002.00
2018-03-04T11:57:20.832Z,1002.00
2018-03-04T11:58:20.860Z,1001.98
2018-03-04T11:59:20.885Z,1001.94
2018-03-04T12:00:20.927Z,1001.96
2018-03-04T12:01:20.947Z,1002.05
2018-03-04T12:02:20.979Z,1002.03
2018-03-04T12:03:21.008Z,1002.01
2018-03-04T12:04:21.041Z,1001.96
2018-03-04T12:05:21.074Z,1001.94